createdAt,value
2023-04-22T00:02:08.613Z,4.00
2023-04-22T00:04:46.571Z,4.00
2023-04-22T00:07:14.961Z,4.00
2023-04-22T00:09:43.518Z,3.90
2023-04-22T00:12:14.972Z,3.80
2023-04-22T00:14:43.108Z,3.90
2023-04-22T00:17:11.272Z,3.80
2023-04-22T00:19:39.582Z,3.80
2023-04-22T00:22:10.242Z,3.80
2023-04-22T00:24:38.590Z,3.80
2023-04-22T00:27:06.800Z,3.70
2023-04-22T00:29:36.673Z,3.70
2023-04-22T00:32:05.124Z,3.70
2023-04-22T00:34:33.269Z,3.60
2023-04-22T00:37:01.557Z,3.60
2023-04-22T00:39:30.134Z,3.70
2023-04-22T00:41:58.304Z,3.80
2023-04-22T00:44:27.870Z,3.70
2023-04-22T00:46:58.124Z,3.80
2023-04-22T00:49:26.439Z,3.80
2023-04-22T00:51:55.340Z,3.80
2023-04-22T00:54:23.691Z,3.80
2023-04-22T00:56:54.694Z,3.80
2023-04-22T00:59:23.807Z,3.80
2023-04-22T01:01:52.503Z,3.90
2023-04-22T01:04:22.774Z,3.80
2023-04-22T01:06:52.831Z,3.70
2023-04-22T01:09:21.841Z,3.70
2023-04-22T01:11:50.075Z,3.70
2023-04-22T01:14:18.250Z,3.70
2023-04-22T01:16:46.709Z,3.70
2023-04-22T01:19:15.077Z,3.60
2023-04-22T01:21:46.337Z,3.70
2023-04-22T01:24:16.034Z,3.70
2023-04-22T01:26:44.395Z,3.60
2023-04-22T01:29:12.609Z,3.60
2023-04-22T01:31:40.841Z,3.70
2023-04-22T01:34:12.451Z,3.70
2023-04-22T01:36:40.543Z,3.70
2023-04-22T01:39:11.633Z,3.70
2023-04-22T01:41:41.726Z,3.70
2023-04-22T01:44:10.034Z,3.70
2023-04-22T01:46:38.138Z,3.60
2023-04-22T01:49:07.552Z,3.70
2023-04-22T01:51:35.715Z,3.70
2023-04-22T01:54:04.297Z,3.60
2023-04-22T01:56:32.605Z,3.60
2023-04-22T01:59:02.263Z,3.70
2023-04-22T02:01:30.504Z,3.70
2023-04-22T02:03:58.851Z,3.60
2023-04-22T02:06:27.666Z,3.60
2023-04-22T02:08:55.757Z,3.60
2023-04-22T02:11:23.899Z,3.60
2023-04-22T02:13:52.403Z,3.60
2023-04-22T02:16:22.214Z,3.50
2023-04-22T02:18:53.191Z,3.40
2023-04-22T02:21:21.385Z,3.40
2023-04-22T02:23:49.570Z,3.30
2023-04-22T02:26:17.892Z,3.30
2023-04-22T02:28:46.533Z,3.30
2023-04-22T02:31:14.658Z,3.20
2023-04-22T02:33:44.427Z,3.20
2023-04-22T02:36:12.685Z,3.00
2023-04-22T02:38:40.823Z,3.10
2023-04-22T02:41:08.998Z,3.20
2023-04-22T02:43:37.310Z,3.10
2023-04-22T02:46:05.497Z,3.10
2023-04-22T02:48:33.810Z,3.00
2023-04-22T02:51:03.549Z,3.00
2023-04-22T02:53:31.772Z,2.90
2023-04-22T02:55:59.892Z,3.40
2023-04-22T02:58:28.045Z,3.50
2023-04-22T03:00:58.309Z,3.40
2023-04-22T03:03:27.109Z,3.20
2023-04-22T03:05:55.672Z,3.10
2023-04-22T03:08:25.643Z,3.20
2023-04-22T03:10:53.897Z,3.40
2023-04-22T03:13:22.013Z,3.40
2023-04-22T03:15:50.093Z,3.30
2023-04-22T03:18:18.259Z,3.20
2023-04-22T03:20:46.563Z,3.20
2023-04-22T03:23:14.668Z,3.20
2023-04-22T03:25:44.219Z,3.20
2023-04-22T03:28:12.490Z,3.20
2023-04-22T03:30:40.627Z,3.10
2023-04-22T03:33:08.790Z,3.20
2023-04-22T03:35:36.937Z,3.00
2023-04-22T03:38:05.258Z,2.90
2023-04-22T03:40:33.371Z,3.00
2023-04-22T03:43:03.853Z,2.90
2023-04-22T03:45:31.975Z,2.70
2023-04-22T03:48:00.345Z,2.80
2023-04-22T03:50:28.504Z,2.80
2023-04-22T03:52:57.762Z,2.80
2023-04-22T03:55:27.947Z,3.00
2023-04-22T03:57:56.220Z,3.00
2023-04-22T04:00:25.976Z,3.00
2023-04-22T04:02:54.349Z,3.00
2023-04-22T04:05:22.866Z,3.00
2023-04-22T04:07:52.671Z,3.10
2023-04-22T04:10:21.086Z,3.20
2023-04-22T04:12:49.240Z,3.20
2023-04-22T04:15:21.532Z,3.20
2023-04-22T04:17:56.361Z,3.10
2023-04-22T04:20:24.869Z,3.20
2023-04-22T04:22:53.034Z,3.20
2023-04-22T04:25:22.514Z,3.20
2023-04-22T04:27:51.965Z,3.40
2023-04-22T04:30:21.865Z,3.30
2023-04-22T04:32:50.051Z,3.40
2023-04-22T04:35:20.429Z,3.80
2023-04-22T04:37:48.829Z,4.10
2023-04-22T04:40:17.039Z,4.50
2023-04-22T04:42:45.231Z,4.70
2023-04-22T04:45:13.591Z,5.00
2023-04-22T04:47:42.085Z,5.20
2023-04-22T04:50:13.386Z,5.40
2023-04-22T04:52:43.014Z,5.50
2023-04-22T04:55:11.320Z,5.80
2023-04-22T04:57:39.496Z,6.10
2023-04-22T05:00:08.473Z,6.40
2023-04-22T05:02:36.885Z,6.70
2023-04-22T05:05:05.352Z,7.00
2023-04-22T05:07:33.703Z,7.10
2023-04-22T05:10:03.226Z,7.50
2023-04-22T05:12:34.025Z,7.80
2023-04-22T05:15:02.225Z,8.00
2023-04-22T05:17:30.671Z,8.00
2023-04-22T05:19:58.816Z,8.10
2023-04-22T05:22:27.086Z,8.10
2023-04-22T05:24:55.275Z,8.00
2023-04-22T05:27:27.860Z,8.10
2023-04-22T05:30:00.404Z,8.40
2023-04-22T05:32:28.690Z,8.30
2023-04-22T05:34:57.343Z,8.20
2023-04-22T05:37:25.591Z,8.30
2023-04-22T05:39:53.699Z,8.30
2023-04-22T05:42:21.855Z,8.60
2023-04-22T05:44:51.592Z,8.70
2023-04-22T05:47:19.857Z,9.00
2023-04-22T05:49:48.022Z,9.20
2023-04-22T05:52:16.782Z,9.30
2023-04-22T05:54:44.920Z,9.40
2023-04-22T05:57:13.620Z,9.50
2023-04-22T05:59:42.094Z,9.50
2023-04-22T06:02:12.153Z,9.60
2023-04-22T06:04:41.466Z,9.70
2023-04-22T06:07:10.276Z,9.80
2023-04-22T06:09:38.631Z,10.10
2023-04-22T06:12:08.129Z,9.70
2023-04-22T06:14:36.381Z,9.70
2023-04-22T06:17:04.669Z,10.10
2023-04-22T06:19:34.301Z,10.20
2023-04-22T06:22:04.797Z,10.40
2023-04-22T06:24:32.938Z,10.20
2023-04-22T06:27:02.362Z,10.20
2023-04-22T06:29:30.591Z,10.30
2023-04-22T06:31:59.091Z,10.00
2023-04-22T06:34:27.348Z,10.40
2023-04-22T06:36:59.370Z,10.40
2023-04-22T06:39:27.515Z,10.60
2023-04-22T06:41:55.950Z,10.60
2023-04-22T06:44:27.297Z,11.20
2023-04-22T06:46:58.224Z,11.10
2023-04-22T06:49:29.882Z,11.40
2023-04-22T06:51:59.451Z,11.60
2023-04-22T06:54:27.872Z,11.80
2023-04-22T06:56:56.804Z,11.80
2023-04-22T06:59:24.959Z,11.30
2023-04-22T07:01:54.725Z,11.30
2023-04-22T07:04:23.181Z,11.60
2023-04-22T07:06:51.375Z,11.50
2023-04-22T07:09:20.978Z,11.60
2023-04-22T07:11:49.107Z,11.90
2023-04-22T07:14:19.593Z,12.00
2023-04-22T07:16:48.117Z,11.90
2023-04-22T07:19:16.565Z,12.40
2023-04-22T07:21:45.626Z,12.80
2023-04-22T07:24:14.004Z,12.90
2023-04-22T07:26:43.915Z,13.00
2023-04-22T07:29:13.039Z,13.10
2023-04-22T07:31:41.208Z,13.20
2023-04-22T07:34:10.796Z,13.20
2023-04-22T07:36:41.902Z,13.20
2023-04-22T07:39:11.473Z,13.30
2023-04-22T07:41:39.581Z,13.10
2023-04-22T07:44:10.609Z,13.40
2023-04-22T07:46:38.841Z,13.30
2023-04-22T07:49:07.116Z,13.40
2023-04-22T07:51:35.613Z,13.40
2023-04-22T07:54:06.248Z,13.50
2023-04-22T07:56:34.835Z,13.70
2023-04-22T07:59:03.025Z,13.80
2023-04-22T08:01:32.729Z,13.80
2023-04-22T08:04:01.284Z,13.80
2023-04-22T08:06:29.643Z,13.60
2023-04-22T08:08:57.954Z,13.30
2023-04-22T08:11:29.320Z,12.90
2023-04-22T08:13:57.468Z,13.10
2023-04-22T08:16:25.663Z,13.20
2023-04-22T08:18:56.399Z,13.60
2023-04-22T08:21:28.512Z,13.40
2023-04-22T08:23:56.780Z,13.80
2023-04-22T08:26:25.009Z,13.70
2023-04-22T08:28:53.188Z,13.70
2023-04-22T08:31:21.392Z,13.50
2023-04-22T08:33:50.932Z,13.20
2023-04-22T08:36:23.831Z,13.10
2023-04-22T08:38:52.285Z,12.80
2023-04-22T08:41:20.466Z,12.50
2023-04-22T08:43:49.344Z,12.60
2023-04-22T08:46:20.105Z,12.80
2023-04-22T08:48:49.266Z,12.90
2023-04-22T08:51:20.145Z,12.50
2023-04-22T08:53:50.016Z,12.70
2023-04-22T08:56:18.205Z,12.70
2023-04-22T08:58:49.766Z,13.20
2023-04-22T09:01:18.399Z,13.30
2023-04-22T09:03:46.837Z,12.80
2023-04-22T09:06:19.783Z,12.80
2023-04-22T09:08:50.679Z,13.10
2023-04-22T09:11:19.296Z,13.10
2023-04-22T09:13:50.960Z,13.30
2023-04-22T09:16:19.364Z,12.90
2023-04-22T09:18:47.593Z,12.90
2023-04-22T09:21:16.277Z,12.80
2023-04-22T09:23:49.735Z,12.40
2023-04-22T09:26:20.963Z,12.00
2023-04-22T09:28:52.125Z,12.10
2023-04-22T09:31:21.991Z,12.30
2023-04-22T09:33:54.076Z,12.90
2023-04-22T09:36:23.472Z,12.30
2023-04-22T09:38:57.367Z,11.70
2023-04-22T09:41:29.146Z,11.30
2023-04-22T09:43:58.092Z,11.40
2023-04-22T09:46:27.207Z,11.50
2023-04-22T09:48:56.567Z,11.40
2023-04-22T09:51:26.131Z,11.50
2023-04-22T09:54:06.575Z,11.90
2023-04-22T09:56:48.777Z,11.40
2023-04-22T09:59:20.699Z,11.70
2023-04-22T10:01:49.276Z,11.60
2023-04-22T10:04:21.841Z,11.60
2023-04-22T10:06:50.935Z,10.90
2023-04-22T10:09:21.463Z,10.80
2023-04-22T10:11:50.759Z,11.10
2023-04-22T10:14:19.093Z,11.10
2023-04-22T10:16:48.277Z,11.40
2023-04-22T10:19:18.641Z,11.40
2023-04-22T10:21:50.358Z,11.20
2023-04-22T10:24:19.198Z,11.10
2023-04-22T10:26:57.172Z,11.50
2023-04-22T10:29:26.899Z,11.10
2023-04-22T10:32:00.142Z,10.60
2023-04-22T10:34:28.327Z,10.20
2023-04-22T10:37:00.943Z,10.40
2023-04-22T10:39:29.850Z,10.50
2023-04-22T10:42:07.084Z,10.10
2023-04-22T10:44:48.340Z,10.10
2023-04-22T10:47:37.005Z,10.30
2023-04-22T10:50:29.107Z,10.00
2023-04-22T10:52:57.808Z,10.20
2023-04-22T10:55:26.569Z,10.20
2023-04-22T10:57:56.412Z,10.30
2023-04-22T11:03:14.211Z,10.10
2023-04-22T11:05:42.817Z,10.20
2023-04-22T11:08:14.732Z,10.60
2023-04-22T11:10:47.754Z,10.60
2023-04-22T11:13:19.405Z,10.80
2023-04-22T11:15:52.337Z,10.90
2023-04-22T11:18:21.886Z,10.60
2023-04-22T11:20:51.206Z,11.30
2023-04-22T11:23:21.147Z,10.60
2023-04-22T11:25:49.860Z,10.70
2023-04-22T11:28:23.039Z,10.40
2023-04-22T11:30:52.346Z,10.40
2023-04-22T11:33:20.953Z,10.70
2023-04-22T11:35:51.194Z,10.40
2023-04-22T11:38:19.428Z,10.40
2023-04-22T11:40:48.203Z,10.40
2023-04-22T11:43:18.851Z,10.90
2023-04-22T11:45:48.685Z,11.30
2023-04-22T11:48:21.123Z,11.60
2023-04-22T11:50:49.385Z,11.40
2023-04-22T11:53:26.130Z,11.60
2023-04-22T11:55:54.351Z,12.00
2023-04-22T11:58:27.323Z,11.40
2023-04-22T12:01:01.925Z,11.10
2023-04-22T12:03:31.250Z,11.10
2023-04-22T12:06:01.575Z,11.20
2023-04-22T12:08:32.647Z,11.80
2023-04-22T12:11:01.443Z,12.10
2023-04-22T12:13:31.860Z,12.20
2023-04-22T12:16:02.613Z,12.50
2023-04-22T12:18:31.441Z,12.30
2023-04-22T12:21:03.707Z,12.50
2023-04-22T12:23:32.645Z,12.00
2023-04-22T12:26:00.808Z,12.20
2023-04-22T12:28:28.973Z,11.90
2023-04-22T12:30:57.192Z,12.10
2023-04-22T12:33:27.272Z,12.60
2023-04-22T12:35:55.417Z,12.70
2023-04-22T12:38:23.733Z,12.60
2023-04-22T12:40:52.508Z,12.80
2023-04-22T12:43:20.778Z,13.10
2023-04-22T12:45:51.627Z,12.60
2023-04-22T12:48:19.861Z,13.30
2023-04-22T12:50:50.117Z,13.40
2023-04-22T12:53:22.155Z,13.40
2023-04-22T12:55:53.454Z,13.30
2023-04-22T12:58:21.853Z,12.90
2023-04-22T13:00:52.621Z,13.70
2023-04-22T13:03:24.180Z,13.70
2023-04-22T13:05:56.700Z,14.80
2023-04-22T13:08:24.942Z,13.70
2023-04-22T13:10:54.384Z,13.70
2023-04-22T13:13:24.812Z,13.60
2023-04-22T13:15:54.295Z,13.60
2023-04-22T13:18:25.767Z,13.20
2023-04-22T13:20:57.047Z,13.60
2023-04-22T13:23:26.052Z,13.10
2023-04-22T13:25:54.464Z,13.20
2023-04-22T13:28:22.763Z,12.00
2023-04-22T13:30:51.294Z,14.20
2023-04-22T13:33:22.711Z,12.80
2023-04-22T13:35:55.924Z,14.00
2023-04-22T13:38:25.683Z,12.60
2023-04-22T13:40:54.085Z,13.90
2023-04-22T13:43:22.540Z,12.00
2023-04-22T13:45:50.892Z,14.40
2023-04-22T13:48:20.312Z,13.30
2023-04-22T13:50:48.610Z,14.30
2023-04-22T13:53:16.887Z,12.60
2023-04-22T13:55:50.307Z,14.60
2023-04-22T13:58:18.579Z,13.90
2023-04-22T14:00:48.882Z,14.40
2023-04-22T14:03:17.476Z,13.10
2023-04-22T14:05:46.064Z,13.90
2023-04-22T14:08:14.614Z,11.70
2023-04-22T14:10:43.041Z,13.50
2023-04-22T14:13:12.845Z,13.10
2023-04-22T14:15:41.270Z,11.60
2023-04-22T14:18:10.159Z,10.60
2023-04-22T14:20:39.068Z,12.80
2023-04-22T14:23:07.452Z,10.10
2023-04-22T14:25:36.032Z,12.60
2023-04-22T14:28:09.268Z,10.50
2023-04-22T14:30:41.956Z,12.10
2023-04-22T14:33:10.948Z,9.70
2023-04-22T14:35:40.089Z,12.20
2023-04-22T14:38:09.146Z,12.00
2023-04-22T14:40:40.523Z,10.50
2023-04-22T14:43:11.553Z,10.70
2023-04-22T14:45:41.292Z,12.10
2023-04-22T14:48:09.561Z,11.60
2023-04-22T14:50:38.080Z,12.20
2023-04-22T14:53:06.437Z,10.20
2023-04-22T14:55:37.800Z,12.40
2023-04-22T14:58:06.406Z,9.50
2023-04-22T15:00:36.801Z,11.90
2023-04-22T15:03:10.351Z,10.30
2023-04-22T15:05:38.762Z,11.70
2023-04-22T15:08:08.730Z,11.10
2023-04-22T15:10:37.109Z,10.70
2023-04-22T15:13:08.171Z,9.60
2023-04-22T15:15:36.745Z,11.50
2023-04-22T15:18:06.840Z,10.20
2023-04-22T15:20:36.761Z,10.70
2023-04-22T15:23:07.465Z,9.00
2023-04-22T15:25:35.886Z,10.80
2023-04-22T15:28:07.229Z,9.00
2023-04-22T15:30:36.488Z,9.90
2023-04-22T15:33:05.431Z,9.70
2023-04-22T15:35:36.614Z,9.70
2023-04-22T15:38:05.856Z,8.30
2023-04-22T15:40:34.102Z,10.50
2023-04-22T15:43:02.496Z,8.40
2023-04-22T15:45:30.840Z,10.70
2023-04-22T15:48:02.583Z,8.30
2023-04-22T15:50:32.690Z,10.10
2023-04-22T15:53:02.692Z,10.00
2023-04-22T15:55:30.949Z,10.00
2023-04-22T15:58:02.698Z,9.00
2023-04-22T16:00:30.967Z,9.90
2023-04-22T16:02:59.585Z,9.30
2023-04-22T16:05:29.373Z,10.60
2023-04-22T16:07:57.704Z,8.70
2023-04-22T16:10:29.847Z,10.20
2023-04-22T16:12:58.419Z,8.10
2023-04-22T16:15:27.191Z,9.90
2023-04-22T16:17:55.633Z,9.50
2023-04-22T16:20:27.043Z,9.20
2023-04-22T16:22:55.251Z,8.00
2023-04-22T16:25:23.732Z,10.70
2023-04-22T16:27:53.643Z,8.20
2023-04-22T16:30:21.877Z,10.20
2023-04-22T16:32:50.662Z,8.50
2023-04-22T16:35:19.029Z,9.90
2023-04-22T16:37:50.940Z,8.50
2023-04-22T16:40:19.816Z,10.40
2023-04-22T16:42:48.075Z,8.80
2023-04-22T16:45:18.738Z,10.50
2023-04-22T16:47:53.668Z,8.10
2023-04-22T16:50:25.129Z,10.40
2023-04-22T16:52:55.739Z,8.20
2023-04-22T16:55:24.024Z,10.60
2023-04-22T16:57:53.763Z,8.90
2023-04-22T17:00:24.274Z,8.00
2023-04-22T17:02:54.647Z,9.20
2023-04-22T17:05:23.223Z,10.70
2023-04-22T17:07:51.459Z,9.00
2023-04-22T17:10:19.983Z,10.70
2023-04-22T17:12:50.121Z,8.50
2023-04-22T17:15:18.542Z,10.10
2023-04-22T17:17:48.352Z,9.30
2023-04-22T17:20:19.958Z,9.90
2023-04-22T17:22:48.388Z,8.60
2023-04-22T17:25:19.012Z,10.50
2023-04-22T17:27:47.524Z,10.40
2023-04-22T17:30:16.088Z,8.80
2023-04-22T17:32:44.394Z,8.70
2023-04-22T17:35:14.338Z,10.00
2023-04-22T17:37:45.502Z,9.30
2023-04-22T17:40:14.024Z,10.30
2023-04-22T17:42:46.361Z,9.40
2023-04-22T17:45:15.167Z,9.10
2023-04-22T17:47:47.698Z,9.30
2023-04-22T17:50:17.662Z,9.30
2023-04-22T17:52:46.111Z,8.10
2023-04-22T17:55:14.774Z,9.10
2023-04-22T17:57:46.948Z,8.20
2023-04-22T18:00:17.679Z,9.00
2023-04-22T18:02:46.398Z,8.60
2023-04-22T18:05:16.286Z,8.60
2023-04-22T18:07:51.004Z,8.40
2023-04-22T18:10:22.805Z,8.60
2023-04-22T18:12:51.279Z,8.80
2023-04-22T18:15:20.785Z,8.80
2023-04-22T18:17:49.168Z,8.80
2023-04-22T18:20:19.356Z,8.80
2023-04-22T18:22:50.102Z,8.80
2023-04-22T18:25:18.399Z,8.50
2023-04-22T18:27:50.398Z,8.00
2023-04-22T18:30:20.187Z,9.50
2023-04-22T18:32:48.504Z,8.10
2023-04-22T18:35:17.373Z,8.60
2023-04-22T18:37:46.133Z,8.50
2023-04-22T18:40:18.099Z,8.60
2023-04-22T18:42:47.774Z,7.50
2023-04-22T18:45:16.987Z,7.90
2023-04-22T18:47:47.174Z,7.50
2023-04-22T18:50:15.514Z,8.20
2023-04-22T18:52:44.078Z,8.30
2023-04-22T18:55:12.377Z,8.20
2023-04-22T18:57:43.705Z,8.10
2023-04-22T19:00:13.333Z,8.00
2023-04-22T19:02:42.482Z,7.80
2023-04-22T19:05:17.439Z,7.50
2023-04-22T19:07:45.852Z,7.00
2023-04-22T19:10:17.373Z,7.80
2023-04-22T19:13:02.005Z,7.70
2023-04-22T19:15:32.304Z,7.50
2023-04-22T19:18:02.529Z,7.70
2023-04-22T19:20:31.119Z,7.20
2023-04-22T19:22:59.353Z,6.50
2023-04-22T19:25:29.369Z,7.40
2023-04-22T19:28:05.993Z,7.20
2023-04-22T19:30:36.664Z,7.30
2023-04-22T19:33:05.060Z,7.10
2023-04-22T19:35:33.436Z,7.20
2023-04-22T19:38:03.502Z,6.10
2023-04-22T19:40:33.470Z,7.00
2023-04-22T19:43:03.239Z,6.10
2023-04-22T19:45:31.639Z,7.10
2023-04-22T19:48:00.715Z,6.70
2023-04-22T19:50:29.237Z,6.90
2023-04-22T19:53:02.948Z,7.20
2023-04-22T19:55:31.608Z,6.70
2023-04-22T19:58:00.667Z,6.90
2023-04-22T20:00:32.403Z,7.00
2023-04-22T20:03:04.042Z,6.20
2023-04-22T20:05:32.845Z,7.00
2023-04-22T20:08:09.573Z,7.10
2023-04-22T20:10:38.202Z,7.00
2023-04-22T20:13:09.681Z,7.00
2023-04-22T20:15:39.951Z,7.00
2023-04-22T20:18:08.679Z,7.90
2023-04-22T20:20:40.015Z,6.40
2023-04-22T20:23:10.758Z,6.90
2023-04-22T20:25:39.749Z,7.30
2023-04-22T20:28:11.436Z,7.00
2023-04-22T20:30:42.900Z,7.60
2023-04-22T20:33:17.654Z,6.50
2023-04-22T20:35:48.172Z,6.40
2023-04-22T20:38:20.550Z,7.70
2023-04-22T20:40:49.357Z,7.50
2023-04-22T20:43:18.025Z,7.10
2023-04-22T20:45:48.112Z,7.20
2023-04-22T20:48:20.528Z,6.70
2023-04-22T20:50:50.935Z,7.40
2023-04-22T20:53:19.377Z,7.20
2023-04-22T20:55:51.078Z,7.30
2023-04-22T20:58:19.413Z,6.60
2023-04-22T21:00:52.310Z,7.60
2023-04-22T21:03:26.884Z,7.00
2023-04-22T21:05:55.956Z,7.30
2023-04-22T21:08:27.164Z,6.90
2023-04-22T21:10:56.825Z,6.40
2023-04-22T21:13:30.986Z,8.40
2023-04-22T21:16:07.152Z,7.50
2023-04-22T21:18:36.100Z,8.00
2023-04-22T21:21:05.459Z,8.30
2023-04-22T21:23:37.190Z,8.40
2023-04-22T21:26:06.210Z,8.90
2023-04-22T21:28:35.127Z,7.40
2023-04-22T21:31:06.210Z,8.20
2023-04-22T21:33:34.602Z,7.50
2023-04-22T21:36:03.436Z,8.30
2023-04-22T21:38:31.830Z,8.10
2023-04-22T21:41:00.183Z,8.60
2023-04-22T21:43:33.194Z,8.10
2023-04-22T21:46:04.253Z,8.90
2023-04-22T21:48:39.136Z,7.60
2023-04-22T21:51:07.641Z,8.70
2023-04-22T21:53:38.934Z,7.60
2023-04-22T21:56:11.762Z,8.20
2023-04-22T21:58:40.162Z,8.50
2023-04-22T22:01:13.386Z,8.40
2023-04-22T22:03:47.380Z,8.40
2023-04-22T22:06:15.908Z,8.90
2023-04-22T22:08:46.442Z,8.40
2023-04-22T22:11:27.476Z,8.80
2023-04-22T22:14:08.660Z,8.10
2023-04-22T22:16:39.909Z,9.60
2023-04-22T22:19:11.571Z,9.60
2023-04-22T22:21:40.042Z,8.10
2023-04-22T22:24:09.628Z,8.60
2023-04-22T22:26:41.260Z,9.50
2023-04-22T22:29:15.710Z,8.60
2023-04-22T22:31:45.949Z,8.50
2023-04-22T22:34:15.913Z,9.00
2023-04-22T22:36:46.344Z,8.70
2023-04-22T22:39:16.436Z,9.00
2023-04-22T22:41:45.394Z,8.40
2023-04-22T22:44:15.654Z,7.50
2023-04-22T22:46:44.143Z,8.40
2023-04-22T22:49:12.555Z,7.80
2023-04-22T22:51:42.898Z,8.00
2023-04-22T22:54:11.424Z,7.70
2023-04-22T22:56:43.972Z,8.10
2023-04-22T22:59:12.392Z,7.90
2023-04-22T23:01:40.925Z,7.90
2023-04-22T23:04:09.538Z,8.20
2023-04-22T23:06:39.578Z,7.80
2023-04-22T23:09:10.859Z,8.40
2023-04-22T23:11:39.341Z,7.70
2023-04-22T23:14:10.004Z,8.10
2023-04-22T23:16:39.278Z,7.50
2023-04-22T23:19:07.814Z,7.90
2023-04-22T23:21:37.690Z,8.70
2023-04-22T23:24:06.933Z,8.30
2023-04-22T23:26:39.235Z,7.40
2023-04-22T23:29:08.199Z,7.40
2023-04-22T23:31:44.696Z,9.40
2023-04-22T23:34:14.484Z,8.30
2023-04-22T23:36:43.573Z,7.70
2023-04-22T23:39:12.073Z,7.70
2023-04-22T23:41:44.436Z,9.40
2023-04-22T23:44:13.219Z,7.10
2023-04-22T23:46:41.592Z,8.30
2023-04-22T23:49:09.827Z,7.80
2023-04-22T23:51:38.395Z,8.40
